createdAt,value
2022-10-03T00:00:20.619Z,98079.31
2022-10-03T00:02:54.178Z,98070.72
2022-10-03T00:05:31.160Z,98080.56
2022-10-03T00:08:10.700Z,98082.03
2022-10-03T00:11:03.248Z,98074.03
2022-10-03T00:13:55.460Z,98068.25
2022-10-03T00:16:36.719Z,98087.50
2022-10-03T00:19:31.617Z,98084.84
2022-10-03T00:22:12.879Z,98097.97
2022-10-03T00:24:57.702Z,98099.38
2022-10-03T00:27:56.619Z,98105.09
2022-10-03T00:30:25.127Z,98108.59
2022-10-03T00:33:03.856Z,98112.72
2022-10-03T00:35:59.098Z,98114.81
2022-10-03T00:38:29.359Z,98104.75
2022-10-03T00:41:15.765Z,98122.34
2022-10-03T00:44:10.399Z,98128.72
2022-10-03T00:46:49.826Z,98123.66
2022-10-03T00:49:35.957Z,98132.97
2022-10-03T00:52:15.660Z,98130.50
2022-10-03T00:55:04.136Z,98134.06
2022-10-03T00:57:53.495Z,98129.38
2022-10-03T01:00:32.564Z,98133.75
2022-10-03T01:03:08.946Z,98134.38
2022-10-03T01:06:07.901Z,98136.59
2022-10-03T01:08:48.338Z,98127.75
2022-10-03T01:11:46.897Z,98132.00
2022-10-03T01:14:27.180Z,98132.59
2022-10-03T01:17:23.034Z,98126.81
2022-10-03T01:20:17.818Z,98128.81
2022-10-03T01:22:51.461Z,98131.03
2022-10-03T01:25:39.360Z,98130.59
2022-10-03T01:28:55.923Z,98136.31
2022-10-03T01:31:34.404Z,98128.13
2022-10-03T01:34:13.540Z,98132.59
2022-10-03T01:37:06.348Z,98136.31
2022-10-03T01:39:58.778Z,98132.22
2022-10-03T01:42:48.055Z,98131.16
2022-10-03T01:45:26.298Z,98130.13
2022-10-03T01:48:02.417Z,98121.31
2022-10-03T01:50:38.702Z,98128.13
2022-10-03T01:53:21.398Z,98138.16
2022-10-03T01:56:12.298Z,98141.88
2022-10-03T01:58:58.919Z,98133.50
2022-10-03T02:01:36.970Z,98134.88
2022-10-03T02:04:15.274Z,98138.84
2022-10-03T02:07:11.038Z,98133.88
2022-10-03T02:09:54.379Z,98138.41
2022-10-03T02:12:21.934Z,98133.63
2022-10-03T02:14:59.254Z,98139.78
2022-10-03T02:17:45.548Z,98138.84
2022-10-03T02:20:28.938Z,98141.88
2022-10-03T02:22:58.837Z,98140.91
2022-10-03T02:25:41.337Z,98147.75
2022-10-03T02:28:45.717Z,98144.13
2022-10-03T02:31:50.108Z,98151.28
2022-10-03T02:34:32.217Z,98145.38
2022-10-03T02:37:28.914Z,98150.09
2022-10-03T02:40:20.697Z,98149.06
2022-10-03T02:43:20.394Z,98157.72
2022-10-03T02:46:21.295Z,98154.69
2022-10-03T02:49:19.659Z,98153.44
2022-10-03T02:52:09.235Z,98148.13
2022-10-03T02:55:07.964Z,98153.53
2022-10-03T02:57:52.338Z,98166.22
2022-10-03T03:00:22.937Z,98167.06
2022-10-03T03:03:15.037Z,98168.09
2022-10-03T03:06:18.023Z,98177.72
2022-10-03T03:08:48.213Z,98179.56
2022-10-03T03:11:59.335Z,98177.13
2022-10-03T03:14:39.356Z,98167.44
2022-10-03T03:17:09.617Z,98180.97
2022-10-03T03:20:06.177Z,98172.84
2022-10-03T03:23:04.438Z,98169.75
2022-10-03T03:25:50.778Z,98177.56
2022-10-03T03:28:40.352Z,98182.44
2022-10-03T03:31:21.482Z,98177.94
2022-10-03T03:33:53.598Z,98180.81
2022-10-03T03:36:27.413Z,98191.25
2022-10-03T03:39:03.414Z,98192.50
2022-10-03T03:41:57.579Z,98189.81
2022-10-03T03:45:00.897Z,98190.31
2022-10-03T03:48:10.435Z,98196.81
2022-10-03T03:51:16.036Z,98202.00
2022-10-03T03:53:46.656Z,98203.84
2022-10-03T03:56:36.996Z,98200.34
2022-10-03T03:59:32.375Z,98207.09
2022-10-03T04:02:41.015Z,98210.38
2022-10-03T04:05:41.136Z,98225.97
2022-10-03T04:08:37.756Z,98214.50
2022-10-03T04:11:32.893Z,98216.75
2022-10-03T04:14:39.296Z,98215.94
2022-10-03T04:18:30.176Z,98207.56
2022-10-03T04:21:18.177Z,98215.56
2022-10-03T04:24:01.415Z,98212.91
2022-10-03T04:26:59.757Z,98218.22
2022-10-03T04:29:48.354Z,98222.31
2022-10-03T04:32:41.753Z,98224.16
2022-10-03T04:35:46.655Z,98225.41
2022-10-03T04:38:39.234Z,98226.41
2022-10-03T04:41:09.816Z,98218.59
2022-10-03T04:44:25.674Z,98218.84
2022-10-03T04:46:56.551Z,98213.09
2022-10-03T04:49:26.995Z,98210.41
2022-10-03T04:52:05.674Z,98208.34
2022-10-03T04:54:52.916Z,98209.56
2022-10-03T04:57:52.975Z,98213.88
2022-10-03T05:01:17.521Z,98217.78
2022-10-03T05:04:20.204Z,98211.84
2022-10-03T05:07:02.735Z,98210.56
2022-10-03T05:09:51.457Z,98219.41
2022-10-03T05:12:29.015Z,98222.25
2022-10-03T05:15:15.359Z,98226.53
2022-10-03T05:18:01.558Z,98221.41
2022-10-03T05:20:44.214Z,98233.72
2022-10-03T05:23:31.444Z,98235.38
2022-10-03T05:26:39.192Z,98226.78
2022-10-03T05:29:25.433Z,98235.41
2022-10-03T05:32:23.891Z,98244.81
2022-10-03T05:35:16.235Z,98241.34
2022-10-03T05:38:08.542Z,98249.13
2022-10-03T05:40:40.235Z,98257.34
2022-10-03T05:43:22.170Z,98261.88
2022-10-03T05:46:11.432Z,98262.28
2022-10-03T05:48:49.895Z,98276.81
2022-10-03T05:51:39.801Z,98267.16
2022-10-03T05:54:10.075Z,98273.94
2022-10-03T05:56:52.815Z,98275.75
2022-10-03T05:59:52.911Z,98287.84
2022-10-03T06:02:54.224Z,98293.38
2022-10-03T06:05:30.219Z,98287.81
2022-10-03T06:08:24.693Z,98288.84
2022-10-03T06:10:52.093Z,98295.78
2022-10-03T06:13:32.355Z,98298.06
2022-10-03T06:16:31.540Z,98303.19
2022-10-03T06:19:31.214Z,98304.84
2022-10-03T06:22:47.357Z,98311.00
2022-10-03T06:25:26.917Z,98307.50
2022-10-03T06:28:09.753Z,98306.03
2022-10-03T06:30:43.214Z,98307.25
2022-10-03T06:33:42.180Z,98307.63
2022-10-03T06:36:35.834Z,98297.56
2022-10-03T06:39:35.503Z,98306.16
2022-10-03T06:42:25.154Z,98317.78
2022-10-03T06:45:09.849Z,98306.03
2022-10-03T06:47:58.474Z,98312.13
2022-10-03T06:50:44.375Z,98308.81
2022-10-03T06:53:59.730Z,98301.63
2022-10-03T06:56:50.152Z,98314.09
2022-10-03T06:59:36.653Z,98312.22
2022-10-03T07:02:17.563Z,98311.16
2022-10-03T07:05:09.510Z,98313.78
2022-10-03T07:08:15.836Z,98320.09
2022-10-03T07:11:06.674Z,98319.00
2022-10-03T07:13:56.686Z,98313.81
2022-10-03T07:16:40.131Z,98318.59
2022-10-03T07:19:28.910Z,98319.59
2022-10-03T07:22:25.154Z,98334.53
2022-10-03T07:25:40.474Z,98325.47
2022-10-03T07:28:32.885Z,98326.22
2022-10-03T07:31:12.582Z,98333.41
2022-10-03T07:34:11.793Z,98329.50
2022-10-03T07:37:07.129Z,98337.31
2022-10-03T07:39:43.669Z,98339.97
2022-10-03T07:42:39.504Z,98342.56
2022-10-03T07:45:30.485Z,98342.47
2022-10-03T07:48:06.093Z,98344.38
2022-10-03T07:51:30.033Z,98339.91
2022-10-03T07:54:28.195Z,98349.72
2022-10-03T07:57:08.108Z,98351.50
2022-10-03T07:59:45.316Z,98343.44
2022-10-03T08:02:34.867Z,98344.91
2022-10-03T08:05:17.631Z,98360.16
2022-10-03T08:08:21.213Z,98354.88
2022-10-03T08:11:16.491Z,98366.59
2022-10-03T08:14:10.332Z,98367.25
2022-10-03T08:17:12.913Z,98363.63
2022-10-03T08:19:59.135Z,98368.25
2022-10-03T08:22:44.294Z,98367.69
2022-10-03T08:25:29.928Z,98360.50
2022-10-03T08:28:31.675Z,98351.69
2022-10-03T08:31:25.743Z,98362.22
2022-10-03T08:33:59.312Z,98364.25
2022-10-03T08:36:51.548Z,98365.38
2022-10-03T08:39:24.912Z,98375.13
2022-10-03T08:42:21.488Z,98367.25
2022-10-03T08:45:13.492Z,98366.19
2022-10-03T08:48:02.793Z,98372.59
2022-10-03T08:50:54.811Z,98360.16
2022-10-03T08:53:31.508Z,98370.53
2022-10-03T08:56:17.313Z,98375.72
2022-10-03T08:58:47.512Z,98372.59
2022-10-03T09:01:49.138Z,98376.66
2022-10-03T09:04:48.207Z,98376.19
2022-10-03T09:07:27.811Z,98380.13
2022-10-03T09:10:20.760Z,98383.50
2022-10-03T09:13:00.653Z,98378.78
2022-10-03T09:15:59.780Z,98376.66
2022-10-03T09:18:47.771Z,98385.16
2022-10-03T09:21:39.757Z,98379.78
2022-10-03T09:24:07.309Z,98380.59
2022-10-03T09:27:24.293Z,98381.03
2022-10-03T09:30:04.091Z,98390.19
2022-10-03T09:32:40.728Z,98383.31
2022-10-03T09:35:45.490Z,98385.66
2022-10-03T09:38:12.912Z,98382.25
2022-10-03T09:41:11.191Z,98389.94
2022-10-03T09:44:19.192Z,98380.84
2022-10-03T09:47:23.412Z,98383.56
2022-10-03T09:50:28.771Z,98382.38
2022-10-03T09:53:25.590Z,98381.59
2022-10-03T09:56:11.852Z,98376.09
2022-10-03T09:59:02.570Z,98382.13
2022-10-03T10:01:39.750Z,98366.84
2022-10-03T10:04:55.427Z,98385.13
2022-10-03T10:08:13.111Z,98379.50
2022-10-03T10:11:35.398Z,98389.06
2022-10-03T10:14:30.351Z,98387.28
2022-10-03T10:17:45.301Z,98378.78
2022-10-03T10:20:21.771Z,98377.66
2022-10-03T10:23:27.370Z,98380.03
2022-10-03T10:26:47.390Z,98372.84
2022-10-03T10:29:50.832Z,98382.59
2022-10-03T10:32:51.067Z,98378.53
2022-10-03T10:35:51.961Z,98381.94
2022-10-03T10:39:00.351Z,98380.66
2022-10-03T10:41:49.607Z,98368.28
2022-10-03T10:45:05.070Z,98383.91
2022-10-03T10:48:04.771Z,98380.84
2022-10-03T10:51:09.609Z,98375.97
2022-10-03T10:53:40.287Z,98373.91
2022-10-03T10:56:17.311Z,98372.81
2022-10-03T10:59:22.674Z,98374.66
2022-10-03T11:06:42.744Z,98361.06
2022-10-03T11:09:48.014Z,98380.03
2022-10-03T11:12:46.753Z,98382.31
2022-10-03T11:15:49.703Z,98377.44
2022-10-03T11:18:26.022Z,98386.88
2022-10-03T11:21:11.606Z,98380.38
2022-10-03T11:23:48.112Z,98382.16
2022-10-03T11:26:40.929Z,98388.97
2022-10-03T11:29:46.052Z,98374.66
2022-10-03T11:32:13.371Z,98378.84
2022-10-03T11:35:18.282Z,98385.63
2022-10-03T11:37:57.263Z,98388.91
2022-10-03T11:40:36.652Z,98388.59
2022-10-03T11:43:25.931Z,98402.78
2022-10-03T11:46:08.331Z,98397.41
2022-10-03T11:48:56.994Z,98396.94
2022-10-03T11:52:29.300Z,98393.28
2022-10-03T11:55:30.890Z,98401.38
2022-10-03T11:58:33.268Z,98389.66
2022-10-03T12:01:03.484Z,98387.47
2022-10-03T12:03:36.022Z,98391.31
2022-10-03T12:06:28.241Z,98393.22
2022-10-03T12:09:40.121Z,98396.47
2022-10-03T12:12:28.316Z,98397.84
2022-10-03T12:15:12.741Z,98403.00
2022-10-03T12:17:46.818Z,98394.16
2022-10-03T12:20:24.663Z,98398.50
2022-10-03T12:22:59.782Z,98390.78
2022-10-03T12:25:32.321Z,98389.56
2022-10-03T12:28:25.661Z,98397.72
2022-10-03T12:30:57.728Z,98392.84
2022-10-03T12:33:48.170Z,98399.41
2022-10-03T12:36:28.287Z,98405.13
2022-10-03T12:39:24.960Z,98409.09
2022-10-03T12:42:01.701Z,98405.97
2022-10-03T12:44:38.412Z,98405.88
2022-10-03T12:47:55.900Z,98408.94
2022-10-03T12:50:39.974Z,98402.75
2022-10-03T12:53:16.612Z,98410.53
2022-10-03T12:55:59.991Z,98414.16
2022-10-03T12:58:59.733Z,98390.44
2022-10-03T13:02:12.535Z,98403.16
2022-10-03T13:04:57.951Z,98399.97
2022-10-03T13:07:44.217Z,98394.88
2022-10-03T13:10:11.607Z,98397.47
2022-10-03T13:12:41.780Z,98399.75
2022-10-03T13:15:43.240Z,98406.06
2022-10-03T13:18:37.244Z,98403.97
2022-10-03T13:21:26.852Z,98415.59
2022-10-03T13:24:01.918Z,98411.63
2022-10-03T13:27:01.091Z,98403.47
2022-10-03T13:29:34.233Z,98392.03
2022-10-03T13:32:27.820Z,98393.34
2022-10-03T13:35:26.523Z,98394.94
2022-10-03T13:38:26.521Z,98395.91
2022-10-03T13:41:39.658Z,98385.91
2022-10-03T13:44:37.711Z,98388.13
2022-10-03T13:47:17.360Z,98391.84
2022-10-03T13:49:44.801Z,98382.63
2022-10-03T13:52:21.879Z,98390.19
2022-10-03T13:55:07.789Z,98389.97
2022-10-03T13:58:16.396Z,98381.69
2022-10-03T14:01:07.727Z,98381.59
2022-10-03T14:04:10.010Z,98385.41
2022-10-03T14:06:55.512Z,98381.31
2022-10-03T14:10:01.401Z,98379.69
2022-10-03T14:12:55.502Z,98389.03
2022-10-03T14:15:23.837Z,98384.63
2022-10-03T14:18:38.790Z,98383.78
2022-10-03T14:21:35.728Z,98388.91
2022-10-03T14:24:20.548Z,98389.25
2022-10-03T14:27:35.019Z,98390.28
2022-10-03T14:30:25.789Z,98383.09
2022-10-03T14:33:07.002Z,98393.56
2022-10-03T14:35:46.474Z,98388.78
2022-10-03T14:38:54.533Z,98387.72
2022-10-03T14:41:28.928Z,98388.31
2022-10-03T14:44:17.632Z,98397.25
2022-10-03T14:47:10.409Z,98396.22
2022-10-03T14:49:54.934Z,98393.41
2022-10-03T14:52:37.230Z,98398.66
2022-10-03T14:55:30.265Z,98392.38
2022-10-03T14:58:11.495Z,98401.13
2022-10-03T15:00:43.902Z,98397.50
2022-10-03T15:03:17.399Z,98405.56
2022-10-03T15:05:56.671Z,98400.53
2022-10-03T15:08:37.914Z,98397.53
2022-10-03T15:11:07.859Z,98393.31
2022-10-03T15:13:47.195Z,98396.84
2022-10-03T15:16:21.914Z,98402.06
2022-10-03T15:18:56.724Z,98394.38
2022-10-03T15:21:26.359Z,98399.25
2022-10-03T15:24:00.621Z,98403.56
2022-10-03T15:26:33.064Z,98398.31
2022-10-03T15:29:04.594Z,98409.84
2022-10-03T15:31:43.563Z,98399.81
2022-10-03T15:34:41.397Z,98395.47
2022-10-03T15:37:17.674Z,98407.47
2022-10-03T15:39:48.318Z,98398.47
2022-10-03T15:42:25.689Z,98391.16
2022-10-03T15:44:59.169Z,98388.13
2022-10-03T15:47:33.977Z,98391.78
2022-10-03T15:50:17.771Z,98386.38
2022-10-03T15:52:52.429Z,98393.69
2022-10-03T15:55:47.337Z,98394.88
2022-10-03T15:58:25.647Z,98380.63
2022-10-03T16:01:04.578Z,98381.00
2022-10-03T16:03:44.897Z,98387.84
2022-10-03T16:06:21.094Z,98386.78
2022-10-03T16:08:54.184Z,98386.63
2022-10-03T16:11:27.830Z,98398.59
2022-10-03T16:14:19.687Z,98391.28
2022-10-03T16:16:58.559Z,98393.13
2022-10-03T16:19:31.999Z,98393.69
2022-10-03T16:22:16.287Z,98388.25
2022-10-03T16:24:48.969Z,98389.13
2022-10-03T16:27:21.277Z,98391.31
2022-10-03T16:29:59.813Z,98388.63
2022-10-03T16:32:31.448Z,98385.59
2022-10-03T16:35:03.823Z,98379.28
2022-10-03T16:37:32.749Z,98384.84
2022-10-03T16:40:03.059Z,98399.88
2022-10-03T16:42:42.414Z,98389.84
2022-10-03T16:45:19.198Z,98396.00
2022-10-03T16:48:07.990Z,98392.50
2022-10-03T16:50:38.877Z,98399.88
2022-10-03T16:53:12.688Z,98396.19
2022-10-03T16:55:56.550Z,98400.88
2022-10-03T16:58:30.867Z,98394.53
2022-10-03T17:01:26.549Z,98400.72
2022-10-03T17:04:32.993Z,98389.44
2022-10-03T17:07:03.999Z,98400.94
2022-10-03T17:09:47.267Z,98404.00
2022-10-03T17:12:34.307Z,98397.41
2022-10-03T17:15:08.357Z,98411.41
2022-10-03T17:17:49.035Z,98416.56
2022-10-03T17:20:22.716Z,98409.78
2022-10-03T17:23:00.226Z,98409.78
2022-10-03T17:25:51.754Z,98406.06
2022-10-03T17:28:33.212Z,98403.25
2022-10-03T17:31:06.186Z,98408.00
2022-10-03T17:33:44.521Z,98404.50
2022-10-03T17:36:14.708Z,98400.41
2022-10-03T17:39:04.862Z,98404.72
2022-10-03T17:41:54.808Z,98410.50
2022-10-03T17:44:47.577Z,98402.44
2022-10-03T17:47:23.128Z,98411.88
2022-10-03T17:50:07.827Z,98419.44
2022-10-03T17:52:41.106Z,98415.34
2022-10-03T17:55:19.076Z,98413.34
2022-10-03T17:57:54.023Z,98411.91
2022-10-03T18:00:29.947Z,98415.63
2022-10-03T18:03:35.807Z,98407.19
2022-10-03T18:06:29.840Z,98416.44
2022-10-03T18:08:58.812Z,98412.97
2022-10-03T18:11:29.706Z,98411.34
2022-10-03T18:14:13.757Z,98417.13
2022-10-03T18:16:54.862Z,98408.88
2022-10-03T18:19:56.319Z,98409.56
2022-10-03T18:22:38.413Z,98410.81
2022-10-03T18:26:14.973Z,98411.03
2022-10-03T18:28:46.198Z,98405.94
2022-10-03T18:31:22.368Z,98403.38
2022-10-03T18:34:00.242Z,98405.03
2022-10-03T18:36:48.696Z,98405.47
2022-10-03T18:39:22.403Z,98399.09
2022-10-03T18:41:55.315Z,98405.47
2022-10-03T18:44:24.666Z,98404.72
2022-10-03T18:47:27.222Z,98413.41
2022-10-03T18:50:26.038Z,98413.63
2022-10-03T18:53:00.466Z,98414.75
2022-10-03T18:55:34.017Z,98415.09
2022-10-03T18:58:06.587Z,98409.84
2022-10-03T19:00:42.802Z,98415.38
2022-10-03T19:03:15.616Z,98414.00
2022-10-03T19:05:48.065Z,98410.56
2022-10-03T19:08:34.622Z,98415.53
2022-10-03T19:11:37.684Z,98412.41
2022-10-03T19:14:13.516Z,98405.91
2022-10-03T19:16:57.119Z,98410.25
2022-10-03T19:19:56.674Z,98409.44
2022-10-03T19:23:09.744Z,98399.34
2022-10-03T19:25:40.082Z,98398.75
2022-10-03T19:28:19.892Z,98401.00
2022-10-03T19:30:58.815Z,98407.34
2022-10-03T19:33:27.885Z,98404.09
2022-10-03T19:35:59.941Z,98405.56
2022-10-03T19:38:39.843Z,98401.47
2022-10-03T19:41:13.984Z,98406.41
2022-10-03T19:43:45.665Z,98408.41
2022-10-03T19:46:23.035Z,98404.91
2022-10-03T19:49:19.621Z,98398.16
2022-10-03T19:51:49.119Z,98398.59
2022-10-03T19:54:34.027Z,98400.63
2022-10-03T19:57:05.663Z,98401.19
2022-10-03T19:59:51.385Z,98407.97
2022-10-03T20:02:25.113Z,98402.19
2022-10-03T20:04:55.626Z,98403.00
2022-10-03T20:07:41.287Z,98398.25
2022-10-03T20:10:31.964Z,98404.09
2022-10-03T20:13:03.825Z,98399.34
2022-10-03T20:15:47.836Z,98404.69
2022-10-03T20:18:23.574Z,98392.53
2022-10-03T20:20:54.545Z,98401.00
2022-10-03T20:23:25.924Z,98388.44
2022-10-03T20:26:10.238Z,98403.66
2022-10-03T20:29:08.575Z,98392.91
2022-10-03T20:31:38.671Z,98393.34
2022-10-03T20:34:14.215Z,98400.56
2022-10-03T20:36:50.740Z,98393.72
2022-10-03T20:39:23.387Z,98391.66
2022-10-03T20:41:53.995Z,98400.69
2022-10-03T20:44:39.849Z,98397.00
2022-10-03T20:47:36.454Z,98397.38
2022-10-03T20:50:30.891Z,98388.19
2022-10-03T20:53:02.404Z,98387.13
2022-10-03T20:55:39.464Z,98390.00
2022-10-03T20:58:51.068Z,98398.19
2022-10-03T21:01:28.923Z,98394.91
2022-10-03T21:04:15.894Z,98394.25
2022-10-03T21:07:15.030Z,98392.31
2022-10-03T21:09:45.555Z,98394.03
2022-10-03T21:12:18.553Z,98396.13
2022-10-03T21:14:57.145Z,98387.06
2022-10-03T21:17:27.540Z,98391.97
2022-10-03T21:20:00.415Z,98387.28
2022-10-03T21:22:29.940Z,98391.34
2022-10-03T21:25:05.113Z,98391.97
2022-10-03T21:27:34.544Z,98391.16
2022-10-03T21:30:23.543Z,98379.94
2022-10-03T21:33:20.104Z,98382.31
2022-10-03T21:35:51.389Z,98390.06
2022-10-03T21:38:31.068Z,98375.91
2022-10-03T21:41:07.539Z,98380.44
2022-10-03T21:44:05.684Z,98385.78
2022-10-03T21:46:50.413Z,98384.53
2022-10-03T21:49:49.412Z,98385.94
2022-10-03T21:52:29.193Z,98386.97
2022-10-03T21:55:11.640Z,98377.53
2022-10-03T21:58:04.221Z,98382.66
2022-10-03T22:01:15.108Z,98377.09
2022-10-03T22:03:59.883Z,98384.09
2022-10-03T22:06:43.574Z,98385.94
2022-10-03T22:09:15.842Z,98378.16
2022-10-03T22:11:53.499Z,98381.50
2022-10-03T22:14:42.523Z,98378.81
2022-10-03T22:17:25.138Z,98377.16
2022-10-03T22:20:12.516Z,98378.66
2022-10-03T22:23:04.481Z,98374.38
2022-10-03T22:25:50.012Z,98378.41
2022-10-03T22:28:29.354Z,98373.91
2022-10-03T22:31:35.448Z,98373.53
2022-10-03T22:34:40.722Z,98375.53
2022-10-03T22:37:08.533Z,98376.34
2022-10-03T22:39:37.280Z,98372.44
2022-10-03T22:42:06.621Z,98371.63
2022-10-03T22:44:38.353Z,98365.47
2022-10-03T22:47:18.424Z,98376.97
2022-10-03T22:49:49.099Z,98371.75
2022-10-03T22:52:27.373Z,98376.16
2022-10-03T22:54:57.168Z,98366.94
2022-10-03T22:57:26.028Z,98363.69
2022-10-03T23:00:08.293Z,98372.09
2022-10-03T23:02:45.588Z,98368.41
2022-10-03T23:05:50.574Z,98365.94
2022-10-03T23:08:35.285Z,98369.22
2022-10-03T23:11:09.745Z,98377.69
2022-10-03T23:13:42.613Z,98368.41
2022-10-03T23:16:29.351Z,98373.06
2022-10-03T23:19:25.940Z,98371.25
2022-10-03T23:21:57.308Z,98372.06
2022-10-03T23:24:30.973Z,98374.28
2022-10-03T23:27:01.492Z,98368.19
2022-10-03T23:29:29.172Z,98374.13
2022-10-03T23:32:04.582Z,98378.41
2022-10-03T23:34:34.838Z,98377.59
2022-10-03T23:37:36.663Z,98376.59
2022-10-03T23:40:07.309Z,98372.09
2022-10-03T23:42:45.315Z,98379.47
2022-10-03T23:45:17.010Z,98373.53
2022-10-03T23:48:04.319Z,98372.63
2022-10-03T23:50:41.518Z,98374.50
2022-10-03T23:53:39.067Z,98368.78
2022-10-03T23:56:24.079Z,98364.69
2022-10-03T23:59:03.518Z,98374.56
